Terminal Aerodrome Forecast
Issued by NWS Tuscon, AZ

Home | Current Version | Previous Version | Text Only | Print | Product List | Glossary On
Versions: 1 2 3 4 5 6 7 8 9 10 11 12 13 14 15
000
FTUS45 KTWC 051131
TAFDUG
TAF
KDUG 051131Z 0512/0612 01006KT P6SM FEW050
     FM051700 23011KT P6SM SCT050 SCT200
     FM052000 26016G25KT P6SM SCT060 SCT200
     FM060300 29008KT P6SM SKC
     FM060800 35006KT P6SM SKC=

USA.gov is the U.S. government's official web portal to all federal, state and local government web resources and services.